sensor_id;sensor_type;location;lat;lon;timestamp;temperature;humidity
32728;DHT22;55292;51.844;19.246;2023-03-20T00:00:30;2.70;99.90
32728;DHT22;55292;51.844;19.246;2023-03-20T00:05:53;2.80;99.90
32728;DHT22;55292;51.844;19.246;2023-03-20T00:10:56;2.80;99.90
32728;DHT22;55292;51.844;19.246;2023-03-20T00:31:38;2.70;99.90
32728;DHT22;55292;51.844;19.246;2023-03-20T00:36:41;2.70;99.90
32728;DHT22;55292;51.844;19.246;2023-03-20T00:42:05;2.70;99.90
32728;DHT22;55292;51.844;19.246;2023-03-20T00:47:16;2.60;99.90
32728;DHT22;55292;51.844;19.246;2023-03-20T00:52:20;2.60;99.90
32728;DHT22;55292;51.844;19.246;2023-03-20T00:57:29;2.50;99.90
32728;DHT22;55292;51.844;19.246;2023-03-20T01:02:32;2.40;99.90
32728;DHT22;55292;51.844;19.246;2023-03-20T01:07:35;2.20;99.90
32728;DHT22;55292;51.844;19.246;2023-03-20T01:12:39;1.90;99.90
32728;DHT22;55292;51.844;19.246;2023-03-20T01:17:42;2.00;99.90
32728;DHT22;55292;51.844;19.246;2023-03-20T01:22:45;2.00;99.90
32728;DHT22;55292;51.844;19.246;2023-03-20T01:27:52;1.70;99.90
32728;DHT22;55292;51.844;19.246;2023-03-20T01:32:56;1.80;99.90
32728;DHT22;55292;51.844;19.246;2023-03-20T01:37:59;1.80;99.90
32728;DHT22;55292;51.844;19.246;2023-03-20T01:43:02;1.80;99.90
32728;DHT22;55292;51.844;19.246;2023-03-20T01:48:14;1.80;99.90
32728;DHT22;55292;51.844;19.246;2023-03-20T01:53:24;1.70;99.90
32728;DHT22;55292;51.844;19.246;2023-03-20T01:58:35;1.70;99.90
32728;DHT22;55292;51.844;19.246;2023-03-20T02:03:44;1.70;99.90
32728;DHT22;55292;51.844;19.246;2023-03-20T02:09:12;1.60;99.90
32728;DHT22;55292;51.844;19.246;2023-03-20T02:14:17;1.70;99.90
32728;DHT22;55292;51.844;19.246;2023-03-20T02:47:02;1.90;99.90
32728;DHT22;55292;51.844;19.246;2023-03-20T02:52:10;1.90;99.90
32728;DHT22;55292;51.844;19.246;2023-03-20T03:02:33;2.30;99.90
32728;DHT22;55292;51.844;19.246;2023-03-20T03:07:41;2.40;99.90
32728;DHT22;55292;51.844;19.246;2023-03-20T03:12:48;2.60;99.90
32728;DHT22;55292;51.844;19.246;2023-03-20T03:17:53;2.80;99.90
32728;DHT22;55292;51.844;19.246;2023-03-20T03:22:56;2.90;99.90
32728;DHT22;55292;51.844;19.246;2023-03-20T03:28:32;2.90;99.90
32728;DHT22;55292;51.844;19.246;2023-03-20T03:33:43;3.00;99.90
32728;DHT22;55292;51.844;19.246;2023-03-20T03:44:22;3.20;99.90
32728;DHT22;55292;51.844;19.246;2023-03-20T03:49:33;3.10;99.90
32728;DHT22;55292;51.844;19.246;2023-03-20T03:54:42;2.90;99.90
32728;DHT22;55292;51.844;19.246;2023-03-20T04:00:25;3.00;99.90
32728;DHT22;55292;51.844;19.246;2023-03-20T04:05:30;3.10;99.90
32728;DHT22;55292;51.844;19.246;2023-03-20T04:10:34;3.20;99.90
32728;DHT22;55292;51.844;19.246;2023-03-20T04:15:37;3.20;99.90
32728;DHT22;55292;51.844;19.246;2023-03-20T04:20:42;3.20;99.90
32728;DHT22;55292;51.844;19.246;2023-03-20T04:25:45;3.30;99.90
32728;DHT22;55292;51.844;19.246;2023-03-20T04:30:53;3.40;99.90
32728;DHT22;55292;51.844;19.246;2023-03-20T04:36:12;3.50;99.90
32728;DHT22;55292;51.844;19.246;2023-03-20T04:41:15;3.70;99.90
32728;DHT22;55292;51.844;19.246;2023-03-20T04:46:21;3.70;99.90
32728;DHT22;55292;51.844;19.246;2023-03-20T04:51:25;3.70;99.90
32728;DHT22;55292;51.844;19.246;2023-03-20T04:56:28;3.50;99.90
32728;DHT22;55292;51.844;19.246;2023-03-20T05:01:44;3.50;99.90
32728;DHT22;55292;51.844;19.246;2023-03-20T05:06:47;3.80;99.90
32728;DHT22;55292;51.844;19.246;2023-03-20T05:11:53;3.70;99.90
32728;DHT22;55292;51.844;19.246;2023-03-20T05:17:16;3.70;99.90
32728;DHT22;55292;51.844;19.246;2023-03-20T05:22:39;3.70;99.90
32728;DHT22;55292;51.844;19.246;2023-03-20T05:28:04;3.70;99.90
32728;DHT22;55292;51.844;19.246;2023-03-20T05:33:27;3.90;99.90
32728;DHT22;55292;51.844;19.246;2023-03-20T05:38:53;4.20;99.90
32728;DHT22;55292;51.844;19.246;2023-03-20T05:43:55;4.50;99.90
32728;DHT22;55292;51.844;19.246;2023-03-20T05:49:18;4.80;99.90
32728;DHT22;55292;51.844;19.246;2023-03-20T05:54:39;5.30;99.90
32728;DHT22;55292;51.844;19.246;2023-03-20T05:59:58;5.70;99.90
32728;DHT22;55292;51.844;19.246;2023-03-20T06:05:19;6.30;99.90
32728;DHT22;55292;51.844;19.246;2023-03-20T06:10:26;6.70;99.90
32728;DHT22;55292;51.844;19.246;2023-03-20T06:15:29;7.10;99.90
32728;DHT22;55292;51.844;19.246;2023-03-20T06:20:41;7.70;99.90
32728;DHT22;55292;51.844;19.246;2023-03-20T06:25:44;8.20;99.90
32728;DHT22;55292;51.844;19.246;2023-03-20T06:30:50;8.50;99.90
32728;DHT22;55292;51.844;19.246;2023-03-20T06:35:55;8.70;99.90
32728;DHT22;55292;51.844;19.246;2023-03-20T06:41:00;9.00;99.90
32728;DHT22;55292;51.844;19.246;2023-03-20T06:46:03;9.50;99.90
32728;DHT22;55292;51.844;19.246;2023-03-20T06:51:06;9.50;99.90
32728;DHT22;55292;51.844;19.246;2023-03-20T06:56:18;9.90;99.90
32728;DHT22;55292;51.844;19.246;2023-03-20T07:01:20;10.00;99.90
32728;DHT22;55292;51.844;19.246;2023-03-20T07:06:23;10.20;99.90
32728;DHT22;55292;51.844;19.246;2023-03-20T07:11:27;10.60;99.90
32728;DHT22;55292;51.844;19.246;2023-03-20T07:16:30;10.90;99.90
32728;DHT22;55292;51.844;19.246;2023-03-20T07:21:40;11.30;99.90
32728;DHT22;55292;51.844;19.246;2023-03-20T07:26:44;11.60;99.90
32728;DHT22;55292;51.844;19.246;2023-03-20T07:31:47;11.90;99.90
32728;DHT22;55292;51.844;19.246;2023-03-20T07:36:58;12.10;99.90
32728;DHT22;55292;51.844;19.246;2023-03-20T07:42:01;12.50;99.90
32728;DHT22;55292;51.844;19.246;2023-03-20T07:47:19;12.90;99.90
32728;DHT22;55292;51.844;19.246;2023-03-20T07:52:22;13.20;99.90
32728;DHT22;55292;51.844;19.246;2023-03-20T07:57:24;13.30;99.90
32728;DHT22;55292;51.844;19.246;2023-03-20T08:02:27;13.60;99.90
32728;DHT22;55292;51.844;19.246;2023-03-20T08:07:30;13.50;99.90
32728;DHT22;55292;51.844;19.246;2023-03-20T08:12:33;13.70;99.90
32728;DHT22;55292;51.844;19.246;2023-03-20T08:17:36;13.80;99.90
32728;DHT22;55292;51.844;19.246;2023-03-20T08:22:38;13.80;99.90
32728;DHT22;55292;51.844;19.246;2023-03-20T08:27:41;14.10;99.90
32728;DHT22;55292;51.844;19.246;2023-03-20T08:32:44;14.10;99.90
32728;DHT22;55292;51.844;19.246;2023-03-20T08:37:47;14.10;99.90
32728;DHT22;55292;51.844;19.246;2023-03-20T08:42:49;14.00;99.90
32728;DHT22;55292;51.844;19.246;2023-03-20T08:47:52;14.10;99.90
32728;DHT22;55292;51.844;19.246;2023-03-20T08:52:54;14.40;99.90
32728;DHT22;55292;51.844;19.246;2023-03-20T08:57:58;13.90;99.90
32728;DHT22;55292;51.844;19.246;2023-03-20T09:03:01;14.10;99.90
32728;DHT22;55292;51.844;19.246;2023-03-20T09:08:04;14.30;99.90
32728;DHT22;55292;51.844;19.246;2023-03-20T09:13:07;14.10;99.90
32728;DHT22;55292;51.844;19.246;2023-03-20T09:18:28;13.80;99.90
32728;DHT22;55292;51.844;19.246;2023-03-20T09:23:30;13.80;99.90
32728;DHT22;55292;51.844;19.246;2023-03-20T09:28:33;13.80;99.90
32728;DHT22;55292;51.844;19.246;2023-03-20T09:33:36;13.60;99.90
32728;DHT22;55292;51.844;19.246;2023-03-20T09:38:39;13.20;99.90
32728;DHT22;55292;51.844;19.246;2023-03-20T09:54:01;13.10;99.90
32728;DHT22;55292;51.844;19.246;2023-03-20T09:59:06;13.30;99.90
32728;DHT22;55292;51.844;19.246;2023-03-20T10:04:10;13.50;99.90
32728;DHT22;55292;51.844;19.246;2023-03-20T10:09:20;13.50;99.90
32728;DHT22;55292;51.844;19.246;2023-03-20T10:19:51;13.00;99.90
32728;DHT22;55292;51.844;19.246;2023-03-20T10:41:21;13.50;99.90
32728;DHT22;55292;51.844;19.246;2023-03-20T10:46:31;13.10;99.90
32728;DHT22;55292;51.844;19.246;2023-03-20T10:51:47;13.30;99.90
32728;DHT22;55292;51.844;19.246;2023-03-20T10:56:52;13.20;99.90
32728;DHT22;55292;51.844;19.246;2023-03-20T11:01:57;13.00;99.90
32728;DHT22;55292;51.844;19.246;2023-03-20T11:12:19;12.70;99.90
32728;DHT22;55292;51.844;19.246;2023-03-20T11:17:27;12.80;99.90
32728;DHT22;55292;51.844;19.246;2023-03-20T11:22:30;13.20;99.90
32728;DHT22;55292;51.844;19.246;2023-03-20T11:27:34;13.50;99.90
32728;DHT22;55292;51.844;19.246;2023-03-20T11:32:45;13.90;99.90
32728;DHT22;55292;51.844;19.246;2023-03-20T11:37:51;14.10;99.90
32728;DHT22;55292;51.844;19.246;2023-03-20T11:43:03;14.40;99.90
32728;DHT22;55292;51.844;19.246;2023-03-20T11:48:19;14.70;99.90
32728;DHT22;55292;51.844;19.246;2023-03-20T11:53:29;14.80;99.90
32728;DHT22;55292;51.844;19.246;2023-03-20T11:58:34;15.20;99.90
32728;DHT22;55292;51.844;19.246;2023-03-20T12:03:43;16.00;99.90
32728;DHT22;55292;51.844;19.246;2023-03-20T12:09:11;15.90;99.90
32728;DHT22;55292;51.844;19.246;2023-03-20T12:14:21;15.90;99.90
32728;DHT22;55292;51.844;19.246;2023-03-20T12:19:28;16.00;99.90
32728;DHT22;55292;51.844;19.246;2023-03-20T12:24:42;15.70;99.90
32728;DHT22;55292;51.844;19.246;2023-03-20T12:30:09;15.10;99.90
32728;DHT22;55292;51.844;19.246;2023-03-20T12:35:26;15.40;99.90
32728;DHT22;55292;51.844;19.246;2023-03-20T12:40:41;15.50;99.90
32728;DHT22;55292;51.844;19.246;2023-03-20T12:46:08;15.80;99.90
32728;DHT22;55292;51.844;19.246;2023-03-20T13:13:01;15.80;99.90
32728;DHT22;55292;51.844;19.246;2023-03-20T13:18:35;15.50;99.90
32728;DHT22;55292;51.844;19.246;2023-03-20T13:35:03;14.90;99.90
32728;DHT22;55292;51.844;19.246;2023-03-20T13:40:27;14.80;99.90
32728;DHT22;55292;51.844;19.246;2023-03-20T13:45:37;14.80;99.90
32728;DHT22;55292;51.844;19.246;2023-03-20T14:01:28;14.70;99.90
32728;DHT22;55292;51.844;19.246;2023-03-20T14:11:46;14.70;99.90
32728;DHT22;55292;51.844;19.246;2023-03-20T14:16:52;14.70;99.90
32728;DHT22;55292;51.844;19.246;2023-03-20T14:22:01;14.40;99.90
32728;DHT22;55292;51.844;19.246;2023-03-20T14:27:04;14.20;99.90
32728;DHT22;55292;51.844;19.246;2023-03-20T14:37:37;13.80;99.90
32728;DHT22;55292;51.844;19.246;2023-03-20T14:53:23;13.10;99.90
32728;DHT22;55292;51.844;19.246;2023-03-20T14:58:48;13.20;99.90
32728;DHT22;55292;51.844;19.246;2023-03-20T15:04:04;13.40;99.90
32728;DHT22;55292;51.844;19.246;2023-03-20T15:09:09;13.40;99.90
32728;DHT22;55292;51.844;19.246;2023-03-20T15:14:23;13.50;99.90
32728;DHT22;55292;51.844;19.246;2023-03-20T15:19:27;13.40;99.90
32728;DHT22;55292;51.844;19.246;2023-03-20T15:24:30;13.50;99.90
32728;DHT22;55292;51.844;19.246;2023-03-20T15:29:33;13.70;99.90
32728;DHT22;55292;51.844;19.246;2023-03-20T15:34:37;13.40;99.90
32728;DHT22;55292;51.844;19.246;2023-03-20T15:39:49;13.00;99.90
32728;DHT22;55292;51.844;19.246;2023-03-20T15:44:55;12.60;99.90
32728;DHT22;55292;51.844;19.246;2023-03-20T15:49:59;12.30;99.90
32728;DHT22;55292;51.844;19.246;2023-03-20T15:55:05;12.30;99.90
32728;DHT22;55292;51.844;19.246;2023-03-20T16:00:14;12.20;99.90
32728;DHT22;55292;51.844;19.246;2023-03-20T16:05:21;12.20;99.90
32728;DHT22;55292;51.844;19.246;2023-03-20T16:10:32;12.10;99.90
32728;DHT22;55292;51.844;19.246;2023-03-20T16:15:37;12.00;99.90
32728;DHT22;55292;51.844;19.246;2023-03-20T16:20:57;11.90;99.90
32728;DHT22;55292;51.844;19.246;2023-03-20T16:26:01;11.70;99.90
32728;DHT22;55292;51.844;19.246;2023-03-20T16:31:10;11.40;99.90
32728;DHT22;55292;51.844;19.246;2023-03-20T16:36:16;11.00;99.90
32728;DHT22;55292;51.844;19.246;2023-03-20T16:46:31;10.40;99.90
32728;DHT22;55292;51.844;19.246;2023-03-20T16:51:34;10.10;99.90
32728;DHT22;55292;51.844;19.246;2023-03-20T16:56:37;10.00;99.90
32728;DHT22;55292;51.844;19.246;2023-03-20T17:01:43;10.00;99.90
32728;DHT22;55292;51.844;19.246;2023-03-20T17:06:48;10.10;99.90
32728;DHT22;55292;51.844;19.246;2023-03-20T17:12:05;10.20;99.90
32728;DHT22;55292;51.844;19.246;2023-03-20T17:17:14;10.30;99.90
32728;DHT22;55292;51.844;19.246;2023-03-20T17:22:23;10.20;99.90
32728;DHT22;55292;51.844;19.246;2023-03-20T17:27:27;10.00;99.90
32728;DHT22;55292;51.844;19.246;2023-03-20T17:32:31;9.90;99.90
32728;DHT22;55292;51.844;19.246;2023-03-20T17:37:34;9.80;99.90
32728;DHT22;55292;51.844;19.246;2023-03-20T17:42:37;9.70;99.90
32728;DHT22;55292;51.844;19.246;2023-03-20T17:47:42;9.70;99.90
32728;DHT22;55292;51.844;19.246;2023-03-20T17:52:45;9.70;99.90
32728;DHT22;55292;51.844;19.246;2023-03-20T17:57:48;9.60;99.90
32728;DHT22;55292;51.844;19.246;2023-03-20T18:02:50;9.50;99.90
32728;DHT22;55292;51.844;19.246;2023-03-20T18:07:53;9.50;99.90
32728;DHT22;55292;51.844;19.246;2023-03-20T18:12:56;9.40;99.90
32728;DHT22;55292;51.844;19.246;2023-03-20T18:17:59;9.40;99.90
32728;DHT22;55292;51.844;19.246;2023-03-20T18:23:02;9.40;99.90
32728;DHT22;55292;51.844;19.246;2023-03-20T18:28:09;9.40;99.90
32728;DHT22;55292;51.844;19.246;2023-03-20T18:33:13;9.40;99.90
32728;DHT22;55292;51.844;19.246;2023-03-20T18:38:17;9.50;99.90
32728;DHT22;55292;51.844;19.246;2023-03-20T18:43:19;9.60;99.90
32728;DHT22;55292;51.844;19.246;2023-03-20T18:48:22;9.60;99.90
32728;DHT22;55292;51.844;19.246;2023-03-20T18:53:27;9.60;99.90
32728;DHT22;55292;51.844;19.246;2023-03-20T18:58:30;12.00;99.90
32728;DHT22;55292;51.844;19.246;2023-03-20T19:03:32;9.40;99.90
32728;DHT22;55292;51.844;19.246;2023-03-20T19:08:41;9.30;99.90
32728;DHT22;55292;51.844;19.246;2023-03-20T19:13:46;9.30;99.90
32728;DHT22;55292;51.844;19.246;2023-03-20T19:18:52;9.30;99.90
32728;DHT22;55292;51.844;19.246;2023-03-20T19:23:58;9.40;99.90
32728;DHT22;55292;51.844;19.246;2023-03-20T19:29:02;9.50;99.90
32728;DHT22;55292;51.844;19.246;2023-03-20T19:34:04;9.50;99.90
32728;DHT22;55292;51.844;19.246;2023-03-20T19:39:10;9.60;99.90
32728;DHT22;55292;51.844;19.246;2023-03-20T19:44:13;9.70;99.90
32728;DHT22;55292;51.844;19.246;2023-03-20T19:49:19;9.80;99.90
32728;DHT22;55292;51.844;19.246;2023-03-20T19:54:22;9.90;99.90
32728;DHT22;55292;51.844;19.246;2023-03-20T19:59:25;9.80;99.90
32728;DHT22;55292;51.844;19.246;2023-03-20T20:04:30;9.80;99.90
32728;DHT22;55292;51.844;19.246;2023-03-20T20:09:32;9.60;99.90
32728;DHT22;55292;51.844;19.246;2023-03-20T20:14:35;9.50;99.90
32728;DHT22;55292;51.844;19.246;2023-03-20T20:19:37;9.50;99.90
32728;DHT22;55292;51.844;19.246;2023-03-20T20:24:41;9.50;99.90
32728;DHT22;55292;51.844;19.246;2023-03-20T20:29:48;9.40;99.90
32728;DHT22;55292;51.844;19.246;2023-03-20T20:34:51;9.40;99.90
32728;DHT22;55292;51.844;19.246;2023-03-20T20:40:16;9.40;99.90
32728;DHT22;55292;51.844;19.246;2023-03-20T20:45:21;9.40;99.90
32728;DHT22;55292;51.844;19.246;2023-03-20T20:50:27;9.30;99.90
32728;DHT22;55292;51.844;19.246;2023-03-20T20:55:31;9.20;99.90
32728;DHT22;55292;51.844;19.246;2023-03-20T21:00:33;9.20;99.90
32728;DHT22;55292;51.844;19.246;2023-03-20T21:05:53;9.10;99.90
32728;DHT22;55292;51.844;19.246;2023-03-20T21:10:56;9.10;99.90
32728;DHT22;55292;51.844;19.246;2023-03-20T21:15:59;9.10;99.90
32728;DHT22;55292;51.844;19.246;2023-03-20T21:21:04;9.00;99.90
32728;DHT22;55292;51.844;19.246;2023-03-20T21:26:07;9.10;99.90
32728;DHT22;55292;51.844;19.246;2023-03-20T21:31:10;8.90;99.90
32728;DHT22;55292;51.844;19.246;2023-03-20T21:36:29;8.70;99.90
32728;DHT22;55292;51.844;19.246;2023-03-20T21:41:33;8.50;99.90
32728;DHT22;55292;51.844;19.246;2023-03-20T21:46:36;8.40;99.90
32728;DHT22;55292;51.844;19.246;2023-03-20T21:51:59;8.60;99.90
32728;DHT22;55292;51.844;19.246;2023-03-20T21:57:22;8.60;99.90
32728;DHT22;55292;51.844;19.246;2023-03-20T22:02:46;8.70;99.90
32728;DHT22;55292;51.844;19.246;2023-03-20T22:07:53;8.70;99.90
32728;DHT22;55292;51.844;19.246;2023-03-20T22:13:16;8.80;99.90
32728;DHT22;55292;51.844;19.246;2023-03-20T22:18:39;8.90;99.90
32728;DHT22;55292;51.844;19.246;2023-03-20T22:24:02;8.80;99.90
32728;DHT22;55292;51.844;19.246;2023-03-20T22:29:25;8.80;99.90
32728;DHT22;55292;51.844;19.246;2023-03-20T22:34:47;8.70;99.90
32728;DHT22;55292;51.844;19.246;2023-03-20T22:40:10;8.60;99.90
32728;DHT22;55292;51.844;19.246;2023-03-20T22:52:07;8.50;99.90
32728;DHT22;55292;51.844;19.246;2023-03-20T22:57:31;8.50;99.90
32728;DHT22;55292;51.844;19.246;2023-03-20T23:09:37;8.40;99.90
32728;DHT22;55292;51.844;19.246;2023-03-20T23:14:39;8.30;99.90
32728;DHT22;55292;51.844;19.246;2023-03-20T23:19:47;8.30;99.90
32728;DHT22;55292;51.844;19.246;2023-03-20T23:25:00;8.20;99.90
32728;DHT22;55292;51.844;19.246;2023-03-20T23:30:14;8.20;99.90
32728;DHT22;55292;51.844;19.246;2023-03-20T23:35:17;8.20;99.90
32728;DHT22;55292;51.844;19.246;2023-03-20T23:40:20;8.10;99.90
32728;DHT22;55292;51.844;19.246;2023-03-20T23:45:23;8.10;99.90
32728;DHT22;55292;51.844;19.246;2023-03-20T23:50:25;8.10;99.90
32728;DHT22;55292;51.844;19.246;2023-03-20T23:55:37;8.10;99.90
